createdAt,value
2024-03-05T00:00:30.150Z,5.93
2024-03-05T00:02:56.819Z,6.00
2024-03-05T00:05:23.429Z,6.04
2024-03-05T00:07:50.133Z,5.94
2024-03-05T00:10:17.037Z,6.04
2024-03-05T00:12:43.649Z,6.09
2024-03-05T00:15:10.624Z,5.98
2024-03-05T00:17:38.208Z,6.06
2024-03-05T00:20:05.488Z,5.97
2024-03-05T00:22:32.131Z,5.95
2024-03-05T00:24:59.865Z,5.81
2024-03-05T00:27:27.169Z,5.71
2024-03-05T00:29:53.806Z,5.76
2024-03-05T00:32:20.420Z,5.91
2024-03-05T00:34:47.114Z,5.90
2024-03-05T00:37:13.792Z,5.93
2024-03-05T00:39:40.405Z,6.02
2024-03-05T00:42:07.094Z,5.89
2024-03-05T00:44:33.731Z,5.76
2024-03-05T00:47:00.314Z,5.99
2024-03-05T00:49:27.732Z,6.10
2024-03-05T00:51:54.381Z,5.97
2024-03-05T00:54:20.935Z,5.59
2024-03-05T00:56:48.129Z,5.74
2024-03-05T00:59:14.680Z,5.60
2024-03-05T01:01:41.395Z,5.59
2024-03-05T01:04:09.277Z,5.47
2024-03-05T01:06:36.281Z,5.50
2024-03-05T01:09:03.943Z,5.53
2024-03-05T01:11:31.017Z,5.59
2024-03-05T01:13:57.790Z,5.62
2024-03-05T01:16:24.649Z,5.56
2024-03-05T01:18:51.223Z,5.59
2024-03-05T01:21:17.844Z,5.60
2024-03-05T01:23:44.962Z,5.62
2024-03-05T01:26:11.466Z,5.82
2024-03-05T01:28:38.155Z,5.73
2024-03-05T01:31:04.796Z,5.70
2024-03-05T01:33:31.476Z,5.76
2024-03-05T01:35:58.192Z,5.76
2024-03-05T01:38:25.091Z,5.76
2024-03-05T01:40:51.800Z,5.57
2024-03-05T01:43:21.076Z,5.54
2024-03-05T01:45:49.335Z,5.65
2024-03-05T01:48:17.426Z,5.54
2024-03-05T01:50:46.106Z,5.48
2024-03-05T01:53:16.469Z,5.46
2024-03-05T01:55:44.786Z,5.57
2024-03-05T01:58:15.836Z,5.46
2024-03-05T02:00:43.292Z,5.17
2024-03-05T02:03:12.311Z,5.47
2024-03-05T02:05:46.058Z,5.48
2024-03-05T02:08:16.132Z,5.43
2024-03-05T02:10:47.291Z,5.26
2024-03-05T02:13:13.969Z,5.02
2024-03-05T02:15:40.740Z,5.28
2024-03-05T02:18:09.031Z,5.51
2024-03-05T02:20:35.924Z,5.49
2024-03-05T02:23:03.588Z,5.40
2024-03-05T02:25:32.612Z,5.50
2024-03-05T02:28:00.902Z,5.42
2024-03-05T02:30:27.608Z,5.45
2024-03-05T02:32:54.476Z,5.31
2024-03-05T02:35:21.671Z,5.35
2024-03-05T02:37:48.242Z,5.61
2024-03-05T02:40:15.268Z,5.43
2024-03-05T02:42:42.357Z,5.39
2024-03-05T02:45:09.652Z,5.42
2024-03-05T02:47:43.383Z,5.39
2024-03-05T02:50:11.054Z,5.49
2024-03-05T02:52:39.868Z,5.25
2024-03-05T02:55:10.821Z,5.45
2024-03-05T02:57:42.466Z,5.30
2024-03-05T03:00:10.483Z,5.44
2024-03-05T03:02:37.895Z,5.38
2024-03-05T03:05:04.891Z,5.20
2024-03-05T03:07:31.499Z,5.40
2024-03-05T03:09:58.068Z,5.30
2024-03-05T03:12:24.680Z,5.49
2024-03-05T03:14:51.255Z,5.35
2024-03-05T03:17:17.885Z,5.32
2024-03-05T03:19:44.502Z,5.44
2024-03-05T03:22:11.621Z,5.22
2024-03-05T03:24:38.090Z,5.30
2024-03-05T03:27:04.721Z,5.08
2024-03-05T03:29:31.347Z,5.22
2024-03-05T03:31:58.122Z,5.22
2024-03-05T03:34:24.765Z,5.35
2024-03-05T03:36:51.549Z,5.08
2024-03-05T03:39:27.183Z,5.27
2024-03-05T03:41:55.109Z,5.36
2024-03-05T03:44:23.515Z,5.37
2024-03-05T03:46:51.512Z,5.36
2024-03-05T03:49:27.033Z,5.37
2024-03-05T03:51:55.023Z,5.49
2024-03-05T03:54:22.933Z,5.18
2024-03-05T03:56:50.201Z,5.30
2024-03-05T03:59:17.052Z,5.39
2024-03-05T04:01:47.692Z,5.29
2024-03-05T04:04:14.972Z,5.43
2024-03-05T04:06:41.991Z,5.36
2024-03-05T04:09:15.030Z,5.07
2024-03-05T04:11:43.035Z,5.33
2024-03-05T04:14:10.358Z,5.29
2024-03-05T04:16:41.524Z,5.30
2024-03-05T04:19:08.468Z,5.25
2024-03-05T04:21:45.656Z,5.34
2024-03-05T04:24:14.499Z,5.42
2024-03-05T04:26:42.599Z,5.37
2024-03-05T04:29:18.081Z,5.21
2024-03-05T04:31:50.720Z,5.28
2024-03-05T04:34:21.810Z,5.25
2024-03-05T04:36:51.554Z,5.46
2024-03-05T04:39:18.166Z,5.46
2024-03-05T04:41:45.661Z,5.25
2024-03-05T04:44:12.337Z,5.41
2024-03-05T04:46:39.507Z,5.06
2024-03-05T04:49:07.500Z,5.13
2024-03-05T04:51:34.447Z,5.22
2024-03-05T04:54:00.960Z,5.05
2024-03-05T04:56:27.799Z,5.15
2024-03-05T04:58:54.580Z,5.24
2024-03-05T05:01:22.951Z,5.25
2024-03-05T05:03:49.662Z,5.26
2024-03-05T05:06:16.543Z,5.15
2024-03-05T05:08:43.958Z,5.08
2024-03-05T05:11:10.924Z,5.21
2024-03-05T05:13:37.732Z,5.12
2024-03-05T05:16:06.332Z,5.08
2024-03-05T05:18:33.123Z,5.17
2024-03-05T05:21:00.808Z,4.99
2024-03-05T05:23:27.427Z,4.99
2024-03-05T05:25:54.169Z,5.09
2024-03-05T05:28:21.355Z,5.19
2024-03-05T05:30:47.936Z,5.29
2024-03-05T05:33:14.844Z,5.22
2024-03-05T05:35:41.519Z,5.21
2024-03-05T05:38:11.620Z,4.98
2024-03-05T05:40:38.296Z,4.86
2024-03-05T05:43:05.301Z,5.08
2024-03-05T05:45:31.898Z,5.24
2024-03-05T05:47:59.322Z,4.95
2024-03-05T05:50:32.490Z,5.05
2024-03-05T05:52:59.691Z,5.09
2024-03-05T05:55:27.283Z,5.11
2024-03-05T05:57:55.778Z,4.97
2024-03-05T06:00:46.904Z,5.01
2024-03-05T06:03:13.727Z,5.09
2024-03-05T06:05:43.553Z,5.05
2024-03-05T06:08:13.282Z,5.11
2024-03-05T06:10:40.637Z,5.02
2024-03-05T06:13:08.282Z,5.10
2024-03-05T06:15:37.068Z,5.03
2024-03-05T06:18:03.995Z,5.03
2024-03-05T06:20:30.715Z,5.05
2024-03-05T06:22:59.368Z,4.89
2024-03-05T06:25:28.487Z,5.12
2024-03-05T06:27:55.862Z,4.89
2024-03-05T06:30:24.011Z,4.86
2024-03-05T06:32:52.758Z,4.89
2024-03-05T06:35:23.760Z,4.87
2024-03-05T06:37:51.384Z,5.03
2024-03-05T06:40:24.854Z,4.95
2024-03-05T06:42:53.419Z,5.00
2024-03-05T06:45:28.870Z,4.88
2024-03-05T06:48:07.306Z,5.01
2024-03-05T06:50:39.511Z,5.10
2024-03-05T06:53:28.974Z,5.05
2024-03-05T06:56:14.601Z,5.16
2024-03-05T06:58:47.147Z,5.15
2024-03-05T07:01:16.072Z,5.09
2024-03-05T07:03:46.263Z,5.15
2024-03-05T07:06:16.038Z,5.23
2024-03-05T07:08:44.301Z,5.32
2024-03-05T07:11:13.270Z,5.46
2024-03-05T07:13:44.777Z,5.43
2024-03-05T07:16:17.740Z,5.82
2024-03-05T07:18:48.568Z,5.80
2024-03-05T07:21:18.171Z,5.83
2024-03-05T07:23:47.259Z,5.77
2024-03-05T07:26:17.076Z,5.76
2024-03-05T07:28:44.497Z,5.83
2024-03-05T07:31:12.358Z,6.15
2024-03-05T07:33:39.786Z,6.08
2024-03-05T07:36:07.808Z,6.00
2024-03-05T07:38:34.679Z,6.04
2024-03-05T07:41:08.512Z,5.85
2024-03-05T07:43:40.780Z,5.59
2024-03-05T07:46:08.517Z,5.60
2024-03-05T07:48:35.116Z,5.78
2024-03-05T07:51:01.711Z,5.77
2024-03-05T07:53:28.283Z,5.59
2024-03-05T07:55:55.127Z,5.39
2024-03-05T07:58:22.313Z,5.30
2024-03-05T08:00:49.033Z,5.27
2024-03-05T08:03:15.639Z,5.19
2024-03-05T08:05:43.154Z,5.38
2024-03-05T08:08:10.852Z,5.19
2024-03-05T08:10:37.664Z,5.29
2024-03-05T08:13:04.480Z,5.29
2024-03-05T08:15:31.060Z,5.18
2024-03-05T08:17:58.258Z,5.20
2024-03-05T08:20:27.615Z,5.45
2024-03-05T08:22:55.830Z,5.45
2024-03-05T08:25:23.423Z,5.48
2024-03-05T08:27:52.338Z,5.46
2024-03-05T08:30:23.227Z,5.40
2024-03-05T08:32:52.668Z,5.39
2024-03-05T08:35:20.146Z,5.59
2024-03-05T08:37:48.705Z,5.73
2024-03-05T08:40:17.561Z,5.89
2024-03-05T08:42:46.441Z,6.00
2024-03-05T08:45:15.977Z,5.78
2024-03-05T08:47:46.186Z,6.14
2024-03-05T08:50:13.685Z,6.11
2024-03-05T08:52:45.042Z,6.15
2024-03-05T08:55:13.857Z,6.05
2024-03-05T08:57:41.486Z,6.53
2024-03-05T09:02:48.574Z,6.30
2024-03-05T09:05:15.385Z,6.00
2024-03-05T09:07:43.903Z,5.84
2024-03-05T09:10:11.389Z,5.67
2024-03-05T09:12:38.355Z,5.81
2024-03-05T09:15:07.172Z,5.79
2024-03-05T09:17:35.149Z,5.89
2024-03-05T09:20:14.956Z,5.71
2024-03-05T09:22:48.503Z,5.99
2024-03-05T09:25:16.929Z,5.90
2024-03-05T09:27:46.072Z,6.10
2024-03-05T09:30:16.495Z,6.18
2024-03-05T09:32:44.832Z,6.39
2024-03-05T09:35:13.847Z,6.50
2024-03-05T09:37:41.187Z,6.66
2024-03-05T09:40:08.349Z,6.45
2024-03-05T09:42:38.411Z,6.41
2024-03-05T09:45:07.789Z,6.27
2024-03-05T09:47:38.746Z,6.33
2024-03-05T09:50:07.155Z,6.32
2024-03-05T09:52:35.449Z,6.24
2024-03-05T09:55:02.770Z,6.45
2024-03-05T09:57:40.196Z,6.68
2024-03-05T10:00:18.560Z,7.02
2024-03-05T10:02:51.805Z,7.30
2024-03-05T10:05:26.288Z,7.09
2024-03-05T10:07:53.076Z,7.10
2024-03-05T10:10:21.122Z,7.22
2024-03-05T10:12:48.166Z,7.80
2024-03-05T10:15:22.127Z,8.07
2024-03-05T10:17:51.863Z,7.95
2024-03-05T10:20:27.008Z,7.77
2024-03-05T10:22:59.642Z,7.75
2024-03-05T10:25:28.055Z,8.06
2024-03-05T10:27:56.040Z,7.87
2024-03-05T10:30:28.705Z,7.66
2024-03-05T10:32:58.418Z,7.63
2024-03-05T10:35:25.163Z,7.88
2024-03-05T10:38:04.217Z,8.18
2024-03-05T10:40:36.622Z,8.17
2024-03-05T10:43:09.888Z,8.24
2024-03-05T10:45:39.470Z,8.43
2024-03-05T10:48:12.316Z,8.68
2024-03-05T10:50:41.430Z,8.67
2024-03-05T10:53:09.606Z,8.37
2024-03-05T10:55:38.739Z,8.02
2024-03-05T10:58:12.327Z,7.78
2024-03-05T11:00:40.921Z,7.66
2024-03-05T11:03:12.847Z,7.50
2024-03-05T11:05:51.070Z,7.37
2024-03-05T11:08:20.730Z,7.36
2024-03-05T11:10:54.590Z,7.20
2024-03-05T11:13:22.807Z,7.31
2024-03-05T11:15:52.442Z,7.56
2024-03-05T11:18:29.626Z,7.44
2024-03-05T11:20:57.099Z,7.33
2024-03-05T11:23:30.679Z,7.30
2024-03-05T11:26:04.959Z,7.37
2024-03-05T11:28:36.836Z,7.28
2024-03-05T11:31:19.236Z,7.64
2024-03-05T11:33:58.985Z,7.65
2024-03-05T11:36:31.302Z,7.70
2024-03-05T11:39:01.879Z,7.87
2024-03-05T11:41:34.920Z,7.77
2024-03-05T11:44:03.901Z,8.24
2024-03-05T11:46:44.969Z,8.58
2024-03-05T11:49:12.850Z,8.79
2024-03-05T11:51:41.644Z,9.00
2024-03-05T11:54:12.574Z,9.15
2024-03-05T11:56:47.178Z,8.90
2024-03-05T11:59:14.071Z,8.51
2024-03-05T12:01:44.392Z,8.39
2024-03-05T12:04:13.072Z,8.48
2024-03-05T12:06:42.373Z,8.96
2024-03-05T12:09:20.053Z,9.32
2024-03-05T12:12:11.084Z,9.50
2024-03-05T12:14:38.883Z,9.85
2024-03-05T12:17:08.712Z,10.00
2024-03-05T12:19:36.054Z,9.56
2024-03-05T12:22:02.865Z,9.51
2024-03-05T12:24:30.444Z,9.83
2024-03-05T12:26:59.044Z,9.93
2024-03-05T12:29:29.157Z,10.10
2024-03-05T12:31:57.550Z,10.33
2024-03-05T12:34:24.742Z,10.50
2024-03-05T12:36:51.991Z,10.98
2024-03-05T12:39:18.943Z,11.21
2024-03-05T12:41:58.118Z,10.97
2024-03-05T12:44:24.771Z,10.84
2024-03-05T12:46:51.614Z,10.82
2024-03-05T12:49:18.795Z,10.67
2024-03-05T12:51:45.409Z,10.38
2024-03-05T12:54:13.282Z,10.21
2024-03-05T12:56:46.422Z,9.81
2024-03-05T12:59:20.550Z,10.09
2024-03-05T13:01:47.282Z,9.85
2024-03-05T13:04:13.892Z,9.92
2024-03-05T13:06:40.630Z,10.26
2024-03-05T13:09:07.274Z,10.24
2024-03-05T13:11:34.025Z,10.11
2024-03-05T13:14:10.388Z,9.83
2024-03-05T13:16:37.641Z,9.68
2024-03-05T13:19:04.250Z,9.71
2024-03-05T13:21:31.224Z,10.06
2024-03-05T13:23:59.131Z,10.14
2024-03-05T13:26:25.893Z,10.22
2024-03-05T13:28:52.498Z,10.00
2024-03-05T13:31:19.134Z,9.64
2024-03-05T13:33:45.821Z,9.59
2024-03-05T13:36:13.410Z,9.82
2024-03-05T13:38:39.997Z,9.93
2024-03-05T13:41:07.797Z,9.41
2024-03-05T13:43:35.579Z,9.41
2024-03-05T13:46:04.662Z,9.08
2024-03-05T13:48:34.526Z,8.68
2024-03-05T13:51:03.462Z,8.54
2024-03-05T13:53:30.110Z,8.79
2024-03-05T13:55:56.979Z,8.58
2024-03-05T13:58:23.861Z,8.64
2024-03-05T14:00:50.813Z,9.19
2024-03-05T14:03:17.507Z,8.99
2024-03-05T14:05:44.066Z,8.87
2024-03-05T14:08:13.668Z,8.91
2024-03-05T14:10:43.613Z,8.77
2024-03-05T14:13:18.945Z,8.89
2024-03-05T14:15:45.617Z,9.09
2024-03-05T14:18:12.508Z,8.88
2024-03-05T14:20:42.031Z,8.89
2024-03-05T14:23:09.308Z,9.14
2024-03-05T14:25:36.074Z,8.81
2024-03-05T14:28:03.103Z,8.99
2024-03-05T14:30:31.471Z,9.06
2024-03-05T14:33:00.070Z,9.02
2024-03-05T14:35:27.402Z,8.67
2024-03-05T14:37:54.412Z,8.76
2024-03-05T14:40:22.360Z,8.60
2024-03-05T14:42:50.526Z,8.67
2024-03-05T14:45:17.561Z,8.49
2024-03-05T14:47:45.314Z,8.41
2024-03-05T14:50:12.217Z,8.64
2024-03-05T14:52:38.946Z,8.33
2024-03-05T14:55:06.116Z,8.60
2024-03-05T14:57:32.607Z,8.68
2024-03-05T14:59:59.234Z,8.30
2024-03-05T15:02:25.991Z,8.37
2024-03-05T15:04:52.907Z,8.44
2024-03-05T15:07:19.568Z,8.39
2024-03-05T15:09:46.759Z,8.36
2024-03-05T15:12:13.966Z,8.23
2024-03-05T15:14:43.422Z,8.09
2024-03-05T15:17:10.679Z,7.87
2024-03-05T15:19:37.506Z,8.19
2024-03-05T15:22:04.324Z,8.17
2024-03-05T15:24:30.986Z,8.01
2024-03-05T15:27:04.396Z,8.04
2024-03-05T15:29:32.705Z,7.96
2024-03-05T15:32:01.274Z,7.79
2024-03-05T15:34:28.239Z,7.89
2024-03-05T15:36:55.938Z,7.54
2024-03-05T15:39:22.662Z,7.26
2024-03-05T15:41:50.057Z,7.04
2024-03-05T15:44:17.915Z,6.90
2024-03-05T15:46:45.783Z,7.16
2024-03-05T15:49:12.729Z,6.95
2024-03-05T15:51:39.458Z,7.01
2024-03-05T15:54:06.053Z,6.93
2024-03-05T15:56:45.994Z,7.01
2024-03-05T15:59:33.216Z,6.88
2024-03-05T16:01:59.933Z,6.96
2024-03-05T16:04:48.769Z,6.69
2024-03-05T16:07:13.494Z,6.81
2024-03-05T16:09:40.762Z,6.84
2024-03-05T16:12:12.123Z,6.90
2024-03-05T16:14:41.779Z,6.75
2024-03-05T16:17:11.975Z,6.82
2024-03-05T16:19:39.699Z,6.69
2024-03-05T16:22:06.266Z,6.71
2024-03-05T16:24:32.925Z,6.90
2024-03-05T16:26:59.768Z,6.86
2024-03-05T16:29:27.192Z,6.81
2024-03-05T16:31:54.863Z,6.68
2024-03-05T16:34:21.560Z,6.39
2024-03-05T16:36:51.011Z,6.66
2024-03-05T16:39:19.630Z,6.73
2024-03-05T16:41:46.566Z,6.74
2024-03-05T16:44:13.338Z,6.57
2024-03-05T16:46:42.220Z,6.52
2024-03-05T16:49:09.762Z,6.37
2024-03-05T16:51:37.260Z,6.33
2024-03-05T16:54:04.394Z,6.28
2024-03-05T16:56:30.921Z,6.29
2024-03-05T16:58:57.656Z,6.23
2024-03-05T17:01:25.149Z,6.34
2024-03-05T17:03:54.720Z,6.18
2024-03-05T17:06:23.349Z,6.13
2024-03-05T17:08:50.676Z,6.14
2024-03-05T17:11:17.650Z,5.99
2024-03-05T17:13:47.492Z,5.91
2024-03-05T17:16:14.907Z,6.11
2024-03-05T17:18:42.170Z,6.00
2024-03-05T17:21:09.693Z,5.76
2024-03-05T17:23:42.207Z,6.03
2024-03-05T17:26:11.165Z,5.91
2024-03-05T17:28:38.146Z,5.96
2024-03-05T17:31:04.939Z,5.92
2024-03-05T17:33:32.187Z,5.92
2024-03-05T17:35:59.295Z,5.85
2024-03-05T17:38:29.524Z,5.65
2024-03-05T17:40:58.324Z,5.50
2024-03-05T17:43:25.676Z,5.17
2024-03-05T17:45:52.350Z,5.34
2024-03-05T17:48:20.491Z,5.29
2024-03-05T17:50:47.222Z,5.46
2024-03-05T17:53:14.082Z,5.39
2024-03-05T17:55:40.810Z,5.53
2024-03-05T17:58:07.411Z,5.61
2024-03-05T18:00:46.143Z,5.73
2024-03-05T18:03:15.394Z,5.95
2024-03-05T18:05:46.379Z,6.01
2024-03-05T18:08:14.551Z,5.97
2024-03-05T18:10:42.907Z,5.98
2024-03-05T18:13:10.586Z,5.91
2024-03-05T18:15:38.365Z,6.05
2024-03-05T18:18:07.229Z,6.01
2024-03-05T18:20:37.789Z,6.17
2024-03-05T18:23:05.733Z,5.82
2024-03-05T18:25:36.796Z,5.89
2024-03-05T18:28:05.218Z,5.98
2024-03-05T18:30:43.044Z,5.86
2024-03-05T18:33:12.164Z,5.82
2024-03-05T18:35:41.114Z,5.85
2024-03-05T18:40:40.966Z,5.71
2024-03-05T18:43:09.296Z,5.62
2024-03-05T18:45:37.088Z,5.63
2024-03-05T18:48:09.635Z,5.69
2024-03-05T18:50:37.299Z,5.54
2024-03-05T18:53:06.963Z,5.86
2024-03-05T18:55:36.744Z,5.54
2024-03-05T18:58:07.622Z,5.67
2024-03-05T19:00:34.815Z,5.62
2024-03-05T19:03:02.108Z,5.62
2024-03-05T19:05:28.783Z,5.72
2024-03-05T19:07:55.618Z,5.43
2024-03-05T19:10:23.706Z,5.60
2024-03-05T19:12:50.251Z,5.73
2024-03-05T19:15:22.025Z,5.63
2024-03-05T19:17:49.175Z,5.75
2024-03-05T19:20:16.907Z,5.65
2024-03-05T19:22:43.877Z,5.61
2024-03-05T19:25:12.794Z,5.49
2024-03-05T19:27:41.112Z,5.43
2024-03-05T19:30:12.772Z,5.50
2024-03-05T19:32:43.346Z,5.61
2024-03-05T19:35:12.387Z,5.67
2024-03-05T19:37:43.871Z,5.52
2024-03-05T19:40:18.971Z,5.45
2024-03-05T19:42:49.339Z,5.42
2024-03-05T19:45:16.003Z,5.21
2024-03-05T19:47:42.825Z,5.44
2024-03-05T19:50:15.012Z,5.44
2024-03-05T19:52:41.938Z,5.63
2024-03-05T19:55:09.623Z,5.61
2024-03-05T19:57:36.624Z,5.68
2024-03-05T20:00:12.722Z,5.58
2024-03-05T20:02:40.128Z,5.36
2024-03-05T20:05:07.165Z,5.51
2024-03-05T20:07:33.767Z,5.54
2024-03-05T20:10:02.068Z,5.61
2024-03-05T20:12:28.953Z,5.42
2024-03-05T20:14:56.255Z,5.67
2024-03-05T20:17:24.234Z,5.74
2024-03-05T20:19:52.285Z,5.66
2024-03-05T20:22:19.775Z,5.82
2024-03-05T20:24:48.551Z,5.73
2024-03-05T20:27:17.011Z,5.83
2024-03-05T20:29:43.819Z,5.80
2024-03-05T20:32:10.733Z,5.83
2024-03-05T20:34:39.416Z,5.75
2024-03-05T20:37:06.241Z,5.86
2024-03-05T20:39:32.876Z,5.81
2024-03-05T20:41:59.489Z,5.82
2024-03-05T20:44:26.582Z,5.86
2024-03-05T20:46:53.426Z,5.94
2024-03-05T20:49:20.285Z,5.93
2024-03-05T20:51:46.983Z,5.92
2024-03-05T20:54:13.639Z,5.81
2024-03-05T20:56:40.230Z,5.88
2024-03-05T20:59:06.977Z,5.82
2024-03-05T21:01:33.811Z,5.76
2024-03-05T21:04:01.573Z,5.83
2024-03-05T21:06:28.385Z,5.98
2024-03-05T21:08:59.673Z,6.01
2024-03-05T21:11:26.448Z,5.94
2024-03-05T21:13:53.279Z,5.95
2024-03-05T21:16:20.198Z,5.94
2024-03-05T21:18:47.426Z,5.76
2024-03-05T21:21:17.848Z,6.00
2024-03-05T21:23:45.101Z,5.95
2024-03-05T21:26:27.377Z,6.00
2024-03-05T21:29:01.332Z,5.77
2024-03-05T21:31:30.035Z,5.99
2024-03-05T21:33:56.698Z,5.98
2024-03-05T21:36:23.710Z,6.04
2024-03-05T21:38:50.399Z,5.94
2024-03-05T21:41:17.234Z,5.91
2024-03-05T21:43:45.106Z,5.88
2024-03-05T21:46:11.770Z,5.89
2024-03-05T21:48:38.398Z,5.86
2024-03-05T21:51:09.845Z,5.78
2024-03-05T21:53:39.681Z,5.83
2024-03-05T21:56:06.877Z,5.82
2024-03-05T21:58:34.105Z,5.97
2024-03-05T22:01:01.100Z,5.94
2024-03-05T22:03:29.511Z,5.89
2024-03-05T22:05:59.633Z,5.79
2024-03-05T22:08:28.908Z,5.71
2024-03-05T22:10:58.387Z,5.86
2024-03-05T22:13:26.071Z,5.75
2024-03-05T22:15:52.830Z,5.95
2024-03-05T22:18:19.475Z,5.78
2024-03-05T22:20:46.122Z,6.00
2024-03-05T22:23:13.891Z,5.77
2024-03-05T22:25:41.978Z,5.77
2024-03-05T22:28:08.684Z,5.64
2024-03-05T22:30:35.452Z,5.81
2024-03-05T22:33:02.228Z,5.81
2024-03-05T22:35:28.929Z,5.82
2024-03-05T22:37:58.329Z,5.82
2024-03-05T22:40:25.302Z,5.80
2024-03-05T22:42:52.952Z,5.79
2024-03-05T22:45:22.538Z,5.95
2024-03-05T22:47:49.826Z,6.01
2024-03-05T22:50:17.173Z,5.97
2024-03-05T22:52:45.654Z,6.06
2024-03-05T22:55:13.138Z,5.93
2024-03-05T22:57:39.924Z,5.96
2024-03-05T23:00:25.960Z,5.91
2024-03-05T23:02:53.051Z,5.96
2024-03-05T23:05:20.657Z,6.02
2024-03-05T23:07:47.986Z,6.07
2024-03-05T23:10:18.449Z,5.91
2024-03-05T23:12:45.724Z,5.89
2024-03-05T23:15:16.403Z,5.88
2024-03-05T23:17:43.981Z,5.92
2024-03-05T23:20:13.891Z,6.10
2024-03-05T23:22:40.867Z,6.02
2024-03-05T23:25:09.835Z,6.03
2024-03-05T23:27:37.196Z,6.08
2024-03-05T23:30:06.030Z,6.06
2024-03-05T23:32:33.286Z,6.07
2024-03-05T23:35:03.522Z,6.11
2024-03-05T23:37:30.120Z,6.08
2024-03-05T23:39:58.035Z,6.10
2024-03-05T23:42:25.663Z,5.99
2024-03-05T23:44:53.607Z,5.73
2024-03-05T23:47:20.450Z,5.94
2024-03-05T23:49:47.865Z,6.11
2024-03-05T23:52:14.689Z,6.12
2024-03-05T23:54:44.407Z,5.94
2024-03-05T23:57:11.542Z,6.10
2024-03-05T23:59:41.817Z,6.11
